sensor_id;sensor_type;location;lat;lon;timestamp;P1;durP1;ratioP1;P2;durP2;ratioP2
3589;SDS011;1809;48.470;9.226;2024-01-10T00:00:09;35.80;;;18.97;;
3589;SDS011;1809;48.470;9.226;2024-01-10T00:02:35;36.80;;;17.10;;
3589;SDS011;1809;48.470;9.226;2024-01-10T00:05:01;36.40;;;17.67;;
3589;SDS011;1809;48.470;9.226;2024-01-10T00:07:26;33.93;;;17.60;;
3589;SDS011;1809;48.470;9.226;2024-01-10T00:09:51;35.73;;;17.00;;
3589;SDS011;1809;48.470;9.226;2024-01-10T00:12:17;37.53;;;17.07;;
3589;SDS011;1809;48.470;9.226;2024-01-10T00:14:42;31.83;;;17.17;;
3589;SDS011;1809;48.470;9.226;2024-01-10T00:17:07;36.67;;;16.83;;
3589;SDS011;1809;48.470;9.226;2024-01-10T00:19:33;42.07;;;18.63;;
3589;SDS011;1809;48.470;9.226;2024-01-10T00:21:58;37.40;;;17.60;;
3589;SDS011;1809;48.470;9.226;2024-01-10T00:24:23;37.00;;;16.70;;
3589;SDS011;1809;48.470;9.226;2024-01-10T00:26:49;36.83;;;17.23;;
3589;SDS011;1809;48.470;9.226;2024-01-10T00:29:14;41.33;;;16.70;;
3589;SDS011;1809;48.470;9.226;2024-01-10T00:31:40;36.87;;;17.30;;
3589;SDS011;1809;48.470;9.226;2024-01-10T00:34:05;33.80;;;16.83;;
3589;SDS011;1809;48.470;9.226;2024-01-10T00:36:31;39.87;;;17.10;;
3589;SDS011;1809;48.470;9.226;2024-01-10T00:38:56;30.30;;;16.00;;
3589;SDS011;1809;48.470;9.226;2024-01-10T00:41:21;39.07;;;17.50;;
3589;SDS011;1809;48.470;9.226;2024-01-10T00:43:46;37.40;;;16.90;;
3589;SDS011;1809;48.470;9.226;2024-01-10T00:46:12;38.43;;;17.60;;
3589;SDS011;1809;48.470;9.226;2024-01-10T00:48:37;35.70;;;16.70;;
3589;SDS011;1809;48.470;9.226;2024-01-10T00:51:02;32.70;;;17.47;;
3589;SDS011;1809;48.470;9.226;2024-01-10T00:53:33;44.87;;;17.73;;
3589;SDS011;1809;48.470;9.226;2024-01-10T00:55:59;36.27;;;18.83;;
3589;SDS011;1809;48.470;9.226;2024-01-10T00:58:24;37.87;;;17.57;;
3589;SDS011;1809;48.470;9.226;2024-01-10T01:00:49;40.20;;;17.80;;
3589;SDS011;1809;48.470;9.226;2024-01-10T01:03:15;36.37;;;16.73;;
3589;SDS011;1809;48.470;9.226;2024-01-10T01:05:40;29.60;;;15.77;;
3589;SDS011;1809;48.470;9.226;2024-01-10T01:08:06;35.43;;;17.50;;
3589;SDS011;1809;48.470;9.226;2024-01-10T01:10:31;31.03;;;16.03;;
3589;SDS011;1809;48.470;9.226;2024-01-10T01:12:57;41.37;;;17.33;;
3589;SDS011;1809;48.470;9.226;2024-01-10T01:15:22;36.90;;;15.90;;
3589;SDS011;1809;48.470;9.226;2024-01-10T01:17:47;36.77;;;17.20;;
3589;SDS011;1809;48.470;9.226;2024-01-10T01:20:13;33.47;;;15.90;;
3589;SDS011;1809;48.470;9.226;2024-01-10T01:22:38;29.03;;;15.10;;
3589;SDS011;1809;48.470;9.226;2024-01-10T01:25:03;36.63;;;16.60;;
3589;SDS011;1809;48.470;9.226;2024-01-10T01:27:29;33.13;;;16.83;;
3589;SDS011;1809;48.470;9.226;2024-01-10T01:29:54;35.43;;;17.53;;
3589;SDS011;1809;48.470;9.226;2024-01-10T01:32:20;29.67;;;15.50;;
3589;SDS011;1809;48.470;9.226;2024-01-10T01:34:45;29.73;;;15.03;;
3589;SDS011;1809;48.470;9.226;2024-01-10T01:37:10;36.03;;;16.53;;
3589;SDS011;1809;48.470;9.226;2024-01-10T01:39:36;38.93;;;18.77;;
3589;SDS011;1809;48.470;9.226;2024-01-10T01:42:01;36.27;;;15.73;;
3589;SDS011;1809;48.470;9.226;2024-01-10T01:44:27;31.27;;;15.47;;
3589;SDS011;1809;48.470;9.226;2024-01-10T01:46:52;33.23;;;16.90;;
3589;SDS011;1809;48.470;9.226;2024-01-10T01:49:17;33.50;;;17.10;;
3589;SDS011;1809;48.470;9.226;2024-01-10T01:51:43;39.77;;;18.33;;
3589;SDS011;1809;48.470;9.226;2024-01-10T01:54:09;34.70;;;16.83;;
3589;SDS011;1809;48.470;9.226;2024-01-10T01:56:37;36.23;;;17.00;;
3589;SDS011;1809;48.470;9.226;2024-01-10T01:59:04;32.97;;;17.80;;
3589;SDS011;1809;48.470;9.226;2024-01-10T02:01:29;36.77;;;18.60;;
3589;SDS011;1809;48.470;9.226;2024-01-10T02:03:55;37.23;;;16.10;;
3589;SDS011;1809;48.470;9.226;2024-01-10T02:06:21;34.63;;;17.10;;
3589;SDS011;1809;48.470;9.226;2024-01-10T02:08:47;38.87;;;18.30;;
3589;SDS011;1809;48.470;9.226;2024-01-10T02:11:12;38.83;;;16.97;;
3589;SDS011;1809;48.470;9.226;2024-01-10T02:13:37;36.40;;;16.63;;
3589;SDS011;1809;48.470;9.226;2024-01-10T02:16:03;37.17;;;17.30;;
3589;SDS011;1809;48.470;9.226;2024-01-10T02:18:30;34.10;;;16.10;;
3589;SDS011;1809;48.470;9.226;2024-01-10T02:20:55;35.90;;;17.13;;
3589;SDS011;1809;48.470;9.226;2024-01-10T02:23:20;32.13;;;16.10;;
3589;SDS011;1809;48.470;9.226;2024-01-10T02:25:46;33.30;;;17.63;;
3589;SDS011;1809;48.470;9.226;2024-01-10T02:28:11;34.27;;;17.93;;
3589;SDS011;1809;48.470;9.226;2024-01-10T02:30:37;31.73;;;15.77;;
3589;SDS011;1809;48.470;9.226;2024-01-10T02:33:02;34.03;;;17.93;;
3589;SDS011;1809;48.470;9.226;2024-01-10T02:35:28;35.70;;;17.17;;
3589;SDS011;1809;48.470;9.226;2024-01-10T02:37:54;32.33;;;16.10;;
3589;SDS011;1809;48.470;9.226;2024-01-10T02:40:20;27.93;;;14.90;;
3589;SDS011;1809;48.470;9.226;2024-01-10T02:42:46;29.87;;;14.70;;
3589;SDS011;1809;48.470;9.226;2024-01-10T02:45:11;35.47;;;18.63;;
3589;SDS011;1809;48.470;9.226;2024-01-10T02:47:37;31.87;;;15.77;;
3589;SDS011;1809;48.470;9.226;2024-01-10T02:50:03;37.20;;;16.93;;
3589;SDS011;1809;48.470;9.226;2024-01-10T02:52:29;32.97;;;16.07;;
3589;SDS011;1809;48.470;9.226;2024-01-10T02:54:54;36.87;;;18.03;;
3589;SDS011;1809;48.470;9.226;2024-01-10T02:57:20;37.10;;;17.60;;
3589;SDS011;1809;48.470;9.226;2024-01-10T02:59:45;34.97;;;17.53;;
3589;SDS011;1809;48.470;9.226;2024-01-10T03:02:10;29.40;;;15.47;;
3589;SDS011;1809;48.470;9.226;2024-01-10T03:04:37;33.30;;;15.70;;
3589;SDS011;1809;48.470;9.226;2024-01-10T03:07:02;36.33;;;16.77;;
3589;SDS011;1809;48.470;9.226;2024-01-10T03:09:28;35.50;;;16.63;;
3589;SDS011;1809;48.470;9.226;2024-01-10T03:11:53;35.30;;;18.00;;
3589;SDS011;1809;48.470;9.226;2024-01-10T03:14:18;38.60;;;17.20;;
3589;SDS011;1809;48.470;9.226;2024-01-10T03:16:44;32.30;;;15.80;;
3589;SDS011;1809;48.470;9.226;2024-01-10T03:19:10;38.63;;;16.87;;
3589;SDS011;1809;48.470;9.226;2024-01-10T03:21:36;34.17;;;16.23;;
3589;SDS011;1809;48.470;9.226;2024-01-10T03:24:01;38.50;;;17.83;;
3589;SDS011;1809;48.470;9.226;2024-01-10T03:26:27;37.07;;;16.27;;
3589;SDS011;1809;48.470;9.226;2024-01-10T03:28:55;29.30;;;16.37;;
3589;SDS011;1809;48.470;9.226;2024-01-10T03:31:21;37.10;;;18.53;;
3589;SDS011;1809;48.470;9.226;2024-01-10T03:33:46;31.90;;;16.10;;
3589;SDS011;1809;48.470;9.226;2024-01-10T03:36:12;30.20;;;15.87;;
3589;SDS011;1809;48.470;9.226;2024-01-10T03:38:41;34.80;;;16.83;;
3589;SDS011;1809;48.470;9.226;2024-01-10T03:41:06;31.80;;;15.60;;
3589;SDS011;1809;48.470;9.226;2024-01-10T03:43:32;34.00;;;17.20;;
3589;SDS011;1809;48.470;9.226;2024-01-10T03:55:31;35.80;;;17.27;;
3589;SDS011;1809;48.470;9.226;2024-01-10T03:57:57;32.80;;;17.90;;
3589;SDS011;1809;48.470;9.226;2024-01-10T04:00:23;33.23;;;16.13;;
3589;SDS011;1809;48.470;9.226;2024-01-10T04:02:48;32.97;;;15.10;;
3589;SDS011;1809;48.470;9.226;2024-01-10T04:05:13;41.50;;;17.13;;
3589;SDS011;1809;48.470;9.226;2024-01-10T04:07:40;36.90;;;15.33;;
3589;SDS011;1809;48.470;9.226;2024-01-10T04:10:09;34.30;;;17.43;;
3589;SDS011;1809;48.470;9.226;2024-01-10T04:12:38;34.33;;;18.07;;
3589;SDS011;1809;48.470;9.226;2024-01-10T04:15:04;33.33;;;17.63;;
3589;SDS011;1809;48.470;9.226;2024-01-10T04:17:30;34.90;;;17.00;;
3589;SDS011;1809;48.470;9.226;2024-01-10T04:19:56;32.40;;;17.70;;
3589;SDS011;1809;48.470;9.226;2024-01-10T04:22:23;41.40;;;17.13;;
3589;SDS011;1809;48.470;9.226;2024-01-10T04:24:49;35.40;;;17.73;;
3589;SDS011;1809;48.470;9.226;2024-01-10T04:27:15;35.37;;;16.50;;
3589;SDS011;1809;48.470;9.226;2024-01-10T04:29:40;30.73;;;16.30;;
3589;SDS011;1809;48.470;9.226;2024-01-10T04:32:06;42.97;;;17.00;;
3589;SDS011;1809;48.470;9.226;2024-01-10T04:34:31;28.93;;;16.60;;
3589;SDS011;1809;48.470;9.226;2024-01-10T04:36:57;34.27;;;17.43;;
3589;SDS011;1809;48.470;9.226;2024-01-10T04:39:22;30.10;;;15.83;;
3589;SDS011;1809;48.470;9.226;2024-01-10T04:41:48;30.80;;;15.90;;
3589;SDS011;1809;48.470;9.226;2024-01-10T04:44:13;36.13;;;18.10;;
3589;SDS011;1809;48.470;9.226;2024-01-10T04:46:39;29.67;;;15.50;;
3589;SDS011;1809;48.470;9.226;2024-01-10T04:49:06;31.30;;;15.27;;
3589;SDS011;1809;48.470;9.226;2024-01-10T04:51:31;34.60;;;16.13;;
3589;SDS011;1809;48.470;9.226;2024-01-10T04:53:57;35.60;;;18.93;;
3589;SDS011;1809;48.470;9.226;2024-01-10T04:56:23;34.30;;;17.50;;
3589;SDS011;1809;48.470;9.226;2024-01-10T04:58:48;34.50;;;16.40;;
3589;SDS011;1809;48.470;9.226;2024-01-10T05:01:14;34.27;;;17.63;;
3589;SDS011;1809;48.470;9.226;2024-01-10T05:03:39;35.07;;;17.83;;
3589;SDS011;1809;48.470;9.226;2024-01-10T05:06:05;33.03;;;17.30;;
3589;SDS011;1809;48.470;9.226;2024-01-10T05:08:31;32.50;;;16.73;;
3589;SDS011;1809;48.470;9.226;2024-01-10T05:10:56;36.30;;;18.63;;
3589;SDS011;1809;48.470;9.226;2024-01-10T05:13:22;36.43;;;18.17;;
3589;SDS011;1809;48.470;9.226;2024-01-10T05:15:47;34.80;;;18.73;;
3589;SDS011;1809;48.470;9.226;2024-01-10T05:18:12;33.00;;;16.53;;
3589;SDS011;1809;48.470;9.226;2024-01-10T05:20:38;31.23;;;16.70;;
3589;SDS011;1809;48.470;9.226;2024-01-10T05:23:03;36.10;;;18.13;;
3589;SDS011;1809;48.470;9.226;2024-01-10T05:25:29;34.93;;;16.73;;
3589;SDS011;1809;48.470;9.226;2024-01-10T05:27:55;40.83;;;19.23;;
3589;SDS011;1809;48.470;9.226;2024-01-10T05:30:20;36.53;;;18.07;;
3589;SDS011;1809;48.470;9.226;2024-01-10T05:32:45;35.03;;;18.40;;
3589;SDS011;1809;48.470;9.226;2024-01-10T05:35:11;37.43;;;17.43;;
3589;SDS011;1809;48.470;9.226;2024-01-10T05:37:36;33.93;;;19.20;;
3589;SDS011;1809;48.470;9.226;2024-01-10T05:40:02;35.57;;;18.27;;
3589;SDS011;1809;48.470;9.226;2024-01-10T05:42:30;41.07;;;19.50;;
3589;SDS011;1809;48.470;9.226;2024-01-10T05:44:55;33.93;;;18.30;;
3589;SDS011;1809;48.470;9.226;2024-01-10T05:47:21;41.90;;;19.43;;
3589;SDS011;1809;48.470;9.226;2024-01-10T05:49:46;35.23;;;19.73;;
3589;SDS011;1809;48.470;9.226;2024-01-10T05:52:11;37.03;;;16.27;;
3589;SDS011;1809;48.470;9.226;2024-01-10T05:54:38;39.30;;;17.50;;
3589;SDS011;1809;48.470;9.226;2024-01-10T05:57:04;38.73;;;18.53;;
3589;SDS011;1809;48.470;9.226;2024-01-10T05:59:29;29.87;;;16.23;;
3589;SDS011;1809;48.470;9.226;2024-01-10T06:01:56;35.67;;;17.40;;
3589;SDS011;1809;48.470;9.226;2024-01-10T06:04:22;39.93;;;18.27;;
3589;SDS011;1809;48.470;9.226;2024-01-10T06:06:48;48.87;;;19.30;;
3589;SDS011;1809;48.470;9.226;2024-01-10T06:09:13;36.23;;;17.43;;
3589;SDS011;1809;48.470;9.226;2024-01-10T06:11:41;34.13;;;16.20;;
3589;SDS011;1809;48.470;9.226;2024-01-10T06:14:07;37.73;;;17.23;;
3589;SDS011;1809;48.470;9.226;2024-01-10T06:16:32;33.30;;;16.57;;
3589;SDS011;1809;48.470;9.226;2024-01-10T06:18:58;39.77;;;18.27;;
3589;SDS011;1809;48.470;9.226;2024-01-10T06:21:23;33.83;;;18.40;;
3589;SDS011;1809;48.470;9.226;2024-01-10T06:23:49;38.87;;;19.87;;
3589;SDS011;1809;48.470;9.226;2024-01-10T06:26:14;44.80;;;17.43;;
3589;SDS011;1809;48.470;9.226;2024-01-10T06:28:40;33.37;;;17.20;;
3589;SDS011;1809;48.470;9.226;2024-01-10T06:31:06;33.13;;;17.40;;
3589;SDS011;1809;48.470;9.226;2024-01-10T06:33:31;35.70;;;18.10;;
3589;SDS011;1809;48.470;9.226;2024-01-10T06:35:57;40.23;;;16.90;;
3589;SDS011;1809;48.470;9.226;2024-01-10T06:38:23;37.43;;;18.13;;
3589;SDS011;1809;48.470;9.226;2024-01-10T06:40:49;41.97;;;19.90;;
3589;SDS011;1809;48.470;9.226;2024-01-10T06:43:15;41.57;;;20.00;;
3589;SDS011;1809;48.470;9.226;2024-01-10T06:45:41;49.20;;;21.10;;
3589;SDS011;1809;48.470;9.226;2024-01-10T06:48:07;40.70;;;19.53;;
3589;SDS011;1809;48.470;9.226;2024-01-10T06:50:33;43.33;;;18.60;;
3589;SDS011;1809;48.470;9.226;2024-01-10T06:52:59;43.53;;;19.77;;
3589;SDS011;1809;48.470;9.226;2024-01-10T06:55:24;40.37;;;22.60;;
3589;SDS011;1809;48.470;9.226;2024-01-10T06:57:51;49.20;;;21.23;;
3589;SDS011;1809;48.470;9.226;2024-01-10T07:00:19;45.70;;;20.10;;
3589;SDS011;1809;48.470;9.226;2024-01-10T07:02:45;48.07;;;22.00;;
3589;SDS011;1809;48.470;9.226;2024-01-10T07:05:11;39.33;;;19.07;;
3589;SDS011;1809;48.470;9.226;2024-01-10T07:07:36;41.67;;;19.87;;
3589;SDS011;1809;48.470;9.226;2024-01-10T07:10:02;38.87;;;20.20;;
3589;SDS011;1809;48.470;9.226;2024-01-10T07:12:31;51.07;;;22.03;;
3589;SDS011;1809;48.470;9.226;2024-01-10T07:14:58;46.20;;;21.60;;
3589;SDS011;1809;48.470;9.226;2024-01-10T07:17:23;42.77;;;21.20;;
3589;SDS011;1809;48.470;9.226;2024-01-10T07:19:49;49.43;;;20.40;;
3589;SDS011;1809;48.470;9.226;2024-01-10T07:22:14;45.17;;;22.00;;
3589;SDS011;1809;48.470;9.226;2024-01-10T07:24:40;40.70;;;20.93;;
3589;SDS011;1809;48.470;9.226;2024-01-10T07:27:06;44.67;;;22.40;;
3589;SDS011;1809;48.470;9.226;2024-01-10T07:29:32;46.03;;;22.20;;
3589;SDS011;1809;48.470;9.226;2024-01-10T07:31:59;41.23;;;22.47;;
3589;SDS011;1809;48.470;9.226;2024-01-10T07:34:24;41.03;;;19.83;;
3589;SDS011;1809;48.470;9.226;2024-01-10T07:36:50;45.60;;;20.80;;
3589;SDS011;1809;48.470;9.226;2024-01-10T07:39:16;43.10;;;24.27;;
3589;SDS011;1809;48.470;9.226;2024-01-10T07:41:43;44.43;;;23.57;;
3589;SDS011;1809;48.470;9.226;2024-01-10T07:44:09;41.40;;;20.10;;
3589;SDS011;1809;48.470;9.226;2024-01-10T07:46:35;38.73;;;20.33;;
3589;SDS011;1809;48.470;9.226;2024-01-10T07:49:02;48.60;;;19.60;;
3589;SDS011;1809;48.470;9.226;2024-01-10T07:51:29;36.90;;;18.73;;
3589;SDS011;1809;48.470;9.226;2024-01-10T07:53:54;40.30;;;19.90;;
3589;SDS011;1809;48.470;9.226;2024-01-10T07:56:21;42.33;;;20.77;;
3589;SDS011;1809;48.470;9.226;2024-01-10T07:58:46;42.03;;;19.30;;
3589;SDS011;1809;48.470;9.226;2024-01-10T08:01:12;39.80;;;21.40;;
3589;SDS011;1809;48.470;9.226;2024-01-10T08:03:37;44.43;;;20.20;;
3589;SDS011;1809;48.470;9.226;2024-01-10T08:06:03;60.73;;;30.10;;
3589;SDS011;1809;48.470;9.226;2024-01-10T08:08:28;45.80;;;21.77;;
3589;SDS011;1809;48.470;9.226;2024-01-10T08:10:55;42.80;;;19.33;;
3589;SDS011;1809;48.470;9.226;2024-01-10T08:13:21;37.03;;;20.13;;
3589;SDS011;1809;48.470;9.226;2024-01-10T08:15:47;41.70;;;21.27;;
3589;SDS011;1809;48.470;9.226;2024-01-10T08:18:12;42.87;;;21.57;;
3589;SDS011;1809;48.470;9.226;2024-01-10T08:20:39;42.43;;;20.60;;
3589;SDS011;1809;48.470;9.226;2024-01-10T08:23:05;46.90;;;23.00;;
3589;SDS011;1809;48.470;9.226;2024-01-10T08:25:30;47.73;;;21.70;;
3589;SDS011;1809;48.470;9.226;2024-01-10T08:27:56;44.67;;;22.33;;
3589;SDS011;1809;48.470;9.226;2024-01-10T08:30:22;44.23;;;22.63;;
3589;SDS011;1809;48.470;9.226;2024-01-10T08:32:48;45.50;;;23.80;;
3589;SDS011;1809;48.470;9.226;2024-01-10T08:35:14;50.90;;;21.47;;
3589;SDS011;1809;48.470;9.226;2024-01-10T08:37:40;45.63;;;22.73;;
3589;SDS011;1809;48.470;9.226;2024-01-10T08:40:10;50.30;;;27.03;;
3589;SDS011;1809;48.470;9.226;2024-01-10T08:42:37;43.57;;;20.50;;
3589;SDS011;1809;48.470;9.226;2024-01-10T08:45:03;41.30;;;20.77;;
3589;SDS011;1809;48.470;9.226;2024-01-10T08:47:29;45.33;;;22.93;;
3589;SDS011;1809;48.470;9.226;2024-01-10T08:49:57;44.73;;;22.60;;
3589;SDS011;1809;48.470;9.226;2024-01-10T08:52:23;43.17;;;21.60;;
3589;SDS011;1809;48.470;9.226;2024-01-10T08:54:49;43.73;;;22.53;;
3589;SDS011;1809;48.470;9.226;2024-01-10T08:57:14;45.50;;;22.63;;
3589;SDS011;1809;48.470;9.226;2024-01-10T08:59:43;44.70;;;22.70;;
3589;SDS011;1809;48.470;9.226;2024-01-10T09:02:08;50.37;;;25.13;;
3589;SDS011;1809;48.470;9.226;2024-01-10T09:04:34;48.27;;;24.33;;
3589;SDS011;1809;48.470;9.226;2024-01-10T09:06:59;43.57;;;21.50;;
3589;SDS011;1809;48.470;9.226;2024-01-10T09:09:25;48.47;;;23.10;;
3589;SDS011;1809;48.470;9.226;2024-01-10T09:11:50;51.53;;;25.47;;
3589;SDS011;1809;48.470;9.226;2024-01-10T09:14:15;48.53;;;23.30;;
3589;SDS011;1809;48.470;9.226;2024-01-10T09:16:41;53.50;;;23.33;;
3589;SDS011;1809;48.470;9.226;2024-01-10T09:19:06;43.60;;;23.03;;
3589;SDS011;1809;48.470;9.226;2024-01-10T09:21:32;44.60;;;21.90;;
3589;SDS011;1809;48.470;9.226;2024-01-10T09:23:57;46.80;;;22.40;;
3589;SDS011;1809;48.470;9.226;2024-01-10T09:26:23;45.17;;;21.80;;
3589;SDS011;1809;48.470;9.226;2024-01-10T09:28:48;43.57;;;21.60;;
3589;SDS011;1809;48.470;9.226;2024-01-10T09:31:14;45.43;;;22.57;;
3589;SDS011;1809;48.470;9.226;2024-01-10T09:33:40;51.60;;;23.27;;
3589;SDS011;1809;48.470;9.226;2024-01-10T09:36:05;52.70;;;24.30;;
3589;SDS011;1809;48.470;9.226;2024-01-10T09:38:35;39.47;;;22.30;;
3589;SDS011;1809;48.470;9.226;2024-01-10T09:41:01;42.10;;;24.73;;
3589;SDS011;1809;48.470;9.226;2024-01-10T09:43:31;46.27;;;24.67;;
3589;SDS011;1809;48.470;9.226;2024-01-10T09:46:01;48.60;;;23.80;;
3589;SDS011;1809;48.470;9.226;2024-01-10T09:48:30;43.13;;;23.17;;
3589;SDS011;1809;48.470;9.226;2024-01-10T09:50:56;53.70;;;24.30;;
3589;SDS011;1809;48.470;9.226;2024-01-10T09:53:22;45.03;;;22.50;;
3589;SDS011;1809;48.470;9.226;2024-01-10T09:55:49;113.60;;;42.83;;
3589;SDS011;1809;48.470;9.226;2024-01-10T09:58:14;54.20;;;24.67;;
3589;SDS011;1809;48.470;9.226;2024-01-10T10:00:39;126.27;;;42.53;;
3589;SDS011;1809;48.470;9.226;2024-01-10T10:03:09;44.70;;;24.23;;
3589;SDS011;1809;48.470;9.226;2024-01-10T10:05:37;51.50;;;25.87;;
3589;SDS011;1809;48.470;9.226;2024-01-10T10:08:03;50.53;;;24.33;;
3589;SDS011;1809;48.470;9.226;2024-01-10T10:10:31;44.40;;;23.20;;
3589;SDS011;1809;48.470;9.226;2024-01-10T10:12:57;53.60;;;22.83;;
3589;SDS011;1809;48.470;9.226;2024-01-10T10:15:23;45.47;;;21.43;;
3589;SDS011;1809;48.470;9.226;2024-01-10T10:17:52;47.93;;;22.23;;
3589;SDS011;1809;48.470;9.226;2024-01-10T10:20:25;38.60;;;21.80;;
3589;SDS011;1809;48.470;9.226;2024-01-10T10:23:11;40.37;;;21.40;;
3589;SDS011;1809;48.470;9.226;2024-01-10T10:25:43;47.73;;;23.20;;
3589;SDS011;1809;48.470;9.226;2024-01-10T10:28:10;40.77;;;20.93;;
3589;SDS011;1809;48.470;9.226;2024-01-10T10:30:36;53.10;;;22.53;;
3589;SDS011;1809;48.470;9.226;2024-01-10T10:33:02;41.40;;;20.80;;
3589;SDS011;1809;48.470;9.226;2024-01-10T10:35:28;44.53;;;22.40;;
3589;SDS011;1809;48.470;9.226;2024-01-10T10:37:54;39.33;;;20.80;;
3589;SDS011;1809;48.470;9.226;2024-01-10T10:40:19;43.57;;;21.03;;
3589;SDS011;1809;48.470;9.226;2024-01-10T10:42:54;41.17;;;21.47;;
3589;SDS011;1809;48.470;9.226;2024-01-10T10:45:21;49.77;;;22.67;;
3589;SDS011;1809;48.470;9.226;2024-01-10T10:47:58;43.80;;;20.13;;
3589;SDS011;1809;48.470;9.226;2024-01-10T10:50:27;40.47;;;20.50;;
3589;SDS011;1809;48.470;9.226;2024-01-10T10:52:54;41.03;;;20.03;;
3589;SDS011;1809;48.470;9.226;2024-01-10T10:55:21;41.73;;;20.20;;
3589;SDS011;1809;48.470;9.226;2024-01-10T10:57:48;44.27;;;20.00;;
3589;SDS011;1809;48.470;9.226;2024-01-10T11:00:17;45.70;;;21.00;;
3589;SDS011;1809;48.470;9.226;2024-01-10T11:02:46;47.13;;;22.53;;
3589;SDS011;1809;48.470;9.226;2024-01-10T11:05:12;45.53;;;21.53;;
3589;SDS011;1809;48.470;9.226;2024-01-10T11:07:39;41.53;;;20.77;;
3589;SDS011;1809;48.470;9.226;2024-01-10T11:10:13;33.87;;;18.67;;
3589;SDS011;1809;48.470;9.226;2024-01-10T11:13:08;42.63;;;20.63;;
3589;SDS011;1809;48.470;9.226;2024-01-10T11:25:19;42.90;;;20.17;;
3589;SDS011;1809;48.470;9.226;2024-01-10T11:27:44;37.77;;;19.90;;
3589;SDS011;1809;48.470;9.226;2024-01-10T11:30:12;43.30;;;23.00;;
3589;SDS011;1809;48.470;9.226;2024-01-10T11:32:37;42.30;;;22.03;;
3589;SDS011;1809;48.470;9.226;2024-01-10T11:35:21;47.73;;;22.90;;
3589;SDS011;1809;48.470;9.226;2024-01-10T11:37:47;47.47;;;22.47;;
3589;SDS011;1809;48.470;9.226;2024-01-10T11:40:14;42.97;;;19.37;;
3589;SDS011;1809;48.470;9.226;2024-01-10T11:42:46;44.83;;;22.33;;
3589;SDS011;1809;48.470;9.226;2024-01-10T11:45:45;44.13;;;22.40;;
3589;SDS011;1809;48.470;9.226;2024-01-10T11:48:15;45.90;;;22.67;;
3589;SDS011;1809;48.470;9.226;2024-01-10T11:50:40;44.57;;;22.10;;
3589;SDS011;1809;48.470;9.226;2024-01-10T11:53:07;41.87;;;21.53;;
3589;SDS011;1809;48.470;9.226;2024-01-10T11:55:51;55.87;;;23.37;;
3589;SDS011;1809;48.470;9.226;2024-01-10T11:58:19;50.00;;;21.07;;
3589;SDS011;1809;48.470;9.226;2024-01-10T12:00:46;56.10;;;23.40;;
3589;SDS011;1809;48.470;9.226;2024-01-10T12:03:12;44.10;;;23.00;;
3589;SDS011;1809;48.470;9.226;2024-01-10T12:05:39;40.50;;;21.60;;
3589;SDS011;1809;48.470;9.226;2024-01-10T12:08:08;40.57;;;22.50;;
3589;SDS011;1809;48.470;9.226;2024-01-10T12:10:34;40.63;;;22.10;;
3589;SDS011;1809;48.470;9.226;2024-01-10T12:13:03;39.57;;;21.63;;
3589;SDS011;1809;48.470;9.226;2024-01-10T12:15:29;47.60;;;23.73;;
3589;SDS011;1809;48.470;9.226;2024-01-10T12:17:54;52.90;;;22.20;;
3589;SDS011;1809;48.470;9.226;2024-01-10T12:20:20;42.23;;;21.87;;
3589;SDS011;1809;48.470;9.226;2024-01-10T12:22:46;72.53;;;22.93;;
3589;SDS011;1809;48.470;9.226;2024-01-10T12:25:11;44.10;;;23.37;;
3589;SDS011;1809;48.470;9.226;2024-01-10T12:27:36;46.43;;;23.07;;
3589;SDS011;1809;48.470;9.226;2024-01-10T12:30:02;47.40;;;23.33;;
3589;SDS011;1809;48.470;9.226;2024-01-10T12:32:28;46.90;;;23.27;;
3589;SDS011;1809;48.470;9.226;2024-01-10T12:35:03;55.57;;;26.30;;
3589;SDS011;1809;48.470;9.226;2024-01-10T12:37:32;52.93;;;26.33;;
3589;SDS011;1809;48.470;9.226;2024-01-10T12:39:58;53.20;;;25.07;;
3589;SDS011;1809;48.470;9.226;2024-01-10T12:42:24;53.33;;;25.43;;
3589;SDS011;1809;48.470;9.226;2024-01-10T12:44:49;52.30;;;23.97;;
3589;SDS011;1809;48.470;9.226;2024-01-10T12:47:18;49.13;;;23.20;;
3589;SDS011;1809;48.470;9.226;2024-01-10T12:49:45;47.57;;;23.93;;
3589;SDS011;1809;48.470;9.226;2024-01-10T12:52:11;44.77;;;22.77;;
3589;SDS011;1809;48.470;9.226;2024-01-10T12:54:38;52.60;;;24.90;;
3589;SDS011;1809;48.470;9.226;2024-01-10T12:57:04;39.63;;;22.53;;
3589;SDS011;1809;48.470;9.226;2024-01-10T12:59:29;54.27;;;26.80;;
3589;SDS011;1809;48.470;9.226;2024-01-10T13:01:55;46.23;;;24.27;;
3589;SDS011;1809;48.470;9.226;2024-01-10T13:04:22;49.83;;;25.70;;
3589;SDS011;1809;48.470;9.226;2024-01-10T13:06:47;57.43;;;25.50;;
3589;SDS011;1809;48.470;9.226;2024-01-10T13:09:12;45.40;;;24.20;;
3589;SDS011;1809;48.470;9.226;2024-01-10T13:11:38;46.60;;;23.87;;
3589;SDS011;1809;48.470;9.226;2024-01-10T13:14:03;47.80;;;24.07;;
3589;SDS011;1809;48.470;9.226;2024-01-10T13:16:28;50.00;;;24.60;;
3589;SDS011;1809;48.470;9.226;2024-01-10T13:18:54;50.53;;;24.17;;
3589;SDS011;1809;48.470;9.226;2024-01-10T13:21:21;50.03;;;24.97;;
3589;SDS011;1809;48.470;9.226;2024-01-10T13:23:47;61.43;;;24.20;;
3589;SDS011;1809;48.470;9.226;2024-01-10T13:26:12;50.77;;;22.67;;
3589;SDS011;1809;48.470;9.226;2024-01-10T13:28:38;45.10;;;22.97;;
3589;SDS011;1809;48.470;9.226;2024-01-10T13:31:03;43.40;;;23.03;;
3589;SDS011;1809;48.470;9.226;2024-01-10T13:33:29;41.20;;;22.40;;
3589;SDS011;1809;48.470;9.226;2024-01-10T13:35:55;41.77;;;23.30;;
3589;SDS011;1809;48.470;9.226;2024-01-10T13:38:20;43.70;;;23.73;;
3589;SDS011;1809;48.470;9.226;2024-01-10T13:40:46;51.37;;;24.33;;
3589;SDS011;1809;48.470;9.226;2024-01-10T13:43:11;43.50;;;22.57;;
3589;SDS011;1809;48.470;9.226;2024-01-10T13:45:37;48.50;;;23.73;;
3589;SDS011;1809;48.470;9.226;2024-01-10T13:48:04;50.10;;;23.97;;
3589;SDS011;1809;48.470;9.226;2024-01-10T13:50:29;51.63;;;24.50;;
3589;SDS011;1809;48.470;9.226;2024-01-10T13:52:55;51.07;;;24.07;;
3589;SDS011;1809;48.470;9.226;2024-01-10T13:55:20;69.40;;;24.33;;
3589;SDS011;1809;48.470;9.226;2024-01-10T13:57:45;50.57;;;22.20;;
3589;SDS011;1809;48.470;9.226;2024-01-10T14:00:11;43.80;;;21.90;;
3589;SDS011;1809;48.470;9.226;2024-01-10T14:02:39;40.60;;;22.10;;
3589;SDS011;1809;48.470;9.226;2024-01-10T14:05:05;38.40;;;22.27;;
3589;SDS011;1809;48.470;9.226;2024-01-10T14:07:31;40.50;;;24.17;;
3589;SDS011;1809;48.470;9.226;2024-01-10T14:09:58;36.80;;;20.60;;
3589;SDS011;1809;48.470;9.226;2024-01-10T14:12:23;39.43;;;20.30;;
3589;SDS011;1809;48.470;9.226;2024-01-10T14:14:48;46.37;;;21.23;;
3589;SDS011;1809;48.470;9.226;2024-01-10T14:17:13;43.40;;;21.70;;
3589;SDS011;1809;48.470;9.226;2024-01-10T14:19:39;44.73;;;20.50;;
3589;SDS011;1809;48.470;9.226;2024-01-10T14:22:04;42.00;;;21.70;;
3589;SDS011;1809;48.470;9.226;2024-01-10T14:24:30;47.90;;;23.67;;
3589;SDS011;1809;48.470;9.226;2024-01-10T14:26:57;39.70;;;22.17;;
3589;SDS011;1809;48.470;9.226;2024-01-10T14:29:23;50.77;;;21.30;;
3589;SDS011;1809;48.470;9.226;2024-01-10T14:31:48;43.13;;;22.70;;
3589;SDS011;1809;48.470;9.226;2024-01-10T14:34:14;45.23;;;24.23;;
3589;SDS011;1809;48.470;9.226;2024-01-10T14:36:40;52.27;;;22.97;;
3589;SDS011;1809;48.470;9.226;2024-01-10T14:39:06;45.57;;;23.50;;
3589;SDS011;1809;48.470;9.226;2024-01-10T14:41:32;50.37;;;24.37;;
3589;SDS011;1809;48.470;9.226;2024-01-10T14:43:59;45.97;;;23.63;;
3589;SDS011;1809;48.470;9.226;2024-01-10T14:46:25;45.00;;;24.07;;
3589;SDS011;1809;48.470;9.226;2024-01-10T14:48:50;50.03;;;24.17;;
3589;SDS011;1809;48.470;9.226;2024-01-10T14:51:15;43.80;;;23.63;;
3589;SDS011;1809;48.470;9.226;2024-01-10T14:53:41;49.93;;;24.73;;
3589;SDS011;1809;48.470;9.226;2024-01-10T14:56:07;54.47;;;24.43;;
3589;SDS011;1809;48.470;9.226;2024-01-10T14:58:32;44.03;;;22.33;;
3589;SDS011;1809;48.470;9.226;2024-01-10T15:00:58;45.70;;;22.37;;